sensor_id;sensor_type;location;lat;lon;timestamp;temperature;humidity
47162;DHT22;32921;53.256;8.198;2022-08-21T00:00:17;12.50;99.90
47162;DHT22;32921;53.256;8.198;2022-08-21T00:02:55;12.40;99.90
47162;DHT22;32921;53.256;8.198;2022-08-21T00:05:22;12.50;99.90
47162;DHT22;32921;53.256;8.198;2022-08-21T00:07:48;12.50;99.90
47162;DHT22;32921;53.256;8.198;2022-08-21T00:10:15;12.50;99.90
47162;DHT22;32921;53.256;8.198;2022-08-21T00:12:42;12.60;99.90
47162;DHT22;32921;53.256;8.198;2022-08-21T00:15:10;12.50;99.90
47162;DHT22;32921;53.256;8.198;2022-08-21T00:17:36;12.40;99.90
47162;DHT22;32921;53.256;8.198;2022-08-21T00:20:05;12.40;99.90
47162;DHT22;32921;53.256;8.198;2022-08-21T00:22:32;12.40;99.90
47162;DHT22;32921;53.256;8.198;2022-08-21T00:24:58;12.30;99.90
47162;DHT22;32921;53.256;8.198;2022-08-21T00:27:23;12.60;99.90
47162;DHT22;32921;53.256;8.198;2022-08-21T00:29:49;12.50;99.90
47162;DHT22;32921;53.256;8.198;2022-08-21T00:32:20;12.50;99.90
47162;DHT22;32921;53.256;8.198;2022-08-21T00:34:46;12.50;99.90
47162;DHT22;32921;53.256;8.198;2022-08-21T00:37:12;12.50;99.90
47162;DHT22;32921;53.256;8.198;2022-08-21T00:39:37;12.40;99.90
47162;DHT22;32921;53.256;8.198;2022-08-21T00:42:03;12.30;99.90
47162;DHT22;32921;53.256;8.198;2022-08-21T00:44:29;12.40;99.90
47162;DHT22;32921;53.256;8.198;2022-08-21T00:46:54;12.30;99.90
47162;DHT22;32921;53.256;8.198;2022-08-21T00:49:20;12.30;99.90
47162;DHT22;32921;53.256;8.198;2022-08-21T00:51:50;12.40;99.90
47162;DHT22;32921;53.256;8.198;2022-08-21T00:54:17;12.40;99.90
47162;DHT22;32921;53.256;8.198;2022-08-21T00:56:44;12.40;99.90
47162;DHT22;32921;53.256;8.198;2022-08-21T00:59:10;12.40;99.90
47162;DHT22;32921;53.256;8.198;2022-08-21T01:01:36;12.40;99.90
47162;DHT22;32921;53.256;8.198;2022-08-21T01:04:02;12.50;99.90
47162;DHT22;32921;53.256;8.198;2022-08-21T01:06:28;12.50;99.90
47162;DHT22;32921;53.256;8.198;2022-08-21T01:08:53;12.60;99.90
47162;DHT22;32921;53.256;8.198;2022-08-21T01:11:20;12.60;99.90
47162;DHT22;32921;53.256;8.198;2022-08-21T01:13:46;12.60;99.90
47162;DHT22;32921;53.256;8.198;2022-08-21T01:16:16;12.80;99.90
47162;DHT22;32921;53.256;8.198;2022-08-21T01:18:43;12.70;99.90
47162;DHT22;32921;53.256;8.198;2022-08-21T01:21:18;12.80;99.90
47162;DHT22;32921;53.256;8.198;2022-08-21T01:23:47;12.80;99.90
47162;DHT22;32921;53.256;8.198;2022-08-21T01:26:15;12.80;99.90
47162;DHT22;32921;53.256;8.198;2022-08-21T01:28:57;12.80;99.90
47162;DHT22;32921;53.256;8.198;2022-08-21T01:31:25;12.80;99.90
47162;DHT22;32921;53.256;8.198;2022-08-21T01:33:51;12.80;99.90
47162;DHT22;32921;53.256;8.198;2022-08-21T01:36:18;12.70;99.90
47162;DHT22;32921;53.256;8.198;2022-08-21T01:38:43;12.80;99.90
47162;DHT22;32921;53.256;8.198;2022-08-21T01:41:09;12.70;99.90
47162;DHT22;32921;53.256;8.198;2022-08-21T01:43:35;12.70;99.90
47162;DHT22;32921;53.256;8.198;2022-08-21T01:46:03;12.80;99.90
47162;DHT22;32921;53.256;8.198;2022-08-21T01:48:28;12.70;99.90
47162;DHT22;32921;53.256;8.198;2022-08-21T01:50:54;12.70;99.90
47162;DHT22;32921;53.256;8.198;2022-08-21T01:53:20;12.80;99.90
47162;DHT22;32921;53.256;8.198;2022-08-21T01:55:45;12.90;99.90
47162;DHT22;32921;53.256;8.198;2022-08-21T01:58:11;13.00;99.90
47162;DHT22;32921;53.256;8.198;2022-08-21T02:00:36;13.20;99.90
47162;DHT22;32921;53.256;8.198;2022-08-21T02:03:02;13.20;99.90
47162;DHT22;32921;53.256;8.198;2022-08-21T02:05:28;13.20;99.90
47162;DHT22;32921;53.256;8.198;2022-08-21T02:07:54;13.20;99.90
47162;DHT22;32921;53.256;8.198;2022-08-21T02:10:24;13.20;99.90
47162;DHT22;32921;53.256;8.198;2022-08-21T02:12:51;13.00;99.90
47162;DHT22;32921;53.256;8.198;2022-08-21T02:15:17;12.90;99.90
47162;DHT22;32921;53.256;8.198;2022-08-21T02:17:50;13.00;99.90
47162;DHT22;32921;53.256;8.198;2022-08-21T02:20:25;13.00;99.90
47162;DHT22;32921;53.256;8.198;2022-08-21T02:22:52;13.00;99.90
47162;DHT22;32921;53.256;8.198;2022-08-21T02:25:20;13.00;99.90
47162;DHT22;32921;53.256;8.198;2022-08-21T02:27:47;12.90;99.90
47162;DHT22;32921;53.256;8.198;2022-08-21T02:30:23;12.90;99.90
47162;DHT22;32921;53.256;8.198;2022-08-21T02:32:49;12.90;99.90
47162;DHT22;32921;53.256;8.198;2022-08-21T02:35:15;13.10;99.90
47162;DHT22;32921;53.256;8.198;2022-08-21T02:37:49;13.10;99.90
47162;DHT22;32921;53.256;8.198;2022-08-21T02:40:16;13.10;99.90
47162;DHT22;32921;53.256;8.198;2022-08-21T02:42:42;13.10;99.90
47162;DHT22;32921;53.256;8.198;2022-08-21T02:45:09;13.10;99.90
47162;DHT22;32921;53.256;8.198;2022-08-21T02:47:35;13.00;99.90
47162;DHT22;32921;53.256;8.198;2022-08-21T02:50:01;13.10;99.90
47162;DHT22;32921;53.256;8.198;2022-08-21T02:52:26;13.20;99.90
47162;DHT22;32921;53.256;8.198;2022-08-21T02:54:52;13.10;99.90
47162;DHT22;32921;53.256;8.198;2022-08-21T02:57:17;13.10;99.90
47162;DHT22;32921;53.256;8.198;2022-08-21T02:59:43;13.10;99.90
47162;DHT22;32921;53.256;8.198;2022-08-21T03:02:09;13.00;99.90
47162;DHT22;32921;53.256;8.198;2022-08-21T03:04:36;13.00;99.90
47162;DHT22;32921;53.256;8.198;2022-08-21T03:07:07;13.10;99.90
47162;DHT22;32921;53.256;8.198;2022-08-21T03:09:33;13.20;99.90
47162;DHT22;32921;53.256;8.198;2022-08-21T03:11:58;13.10;99.90
47162;DHT22;32921;53.256;8.198;2022-08-21T03:14:24;13.10;99.90
47162;DHT22;32921;53.256;8.198;2022-08-21T03:16:50;13.00;99.90
47162;DHT22;32921;53.256;8.198;2022-08-21T03:19:15;13.00;99.90
47162;DHT22;32921;53.256;8.198;2022-08-21T03:21:41;13.10;99.90
47162;DHT22;32921;53.256;8.198;2022-08-21T03:24:07;13.10;99.90
47162;DHT22;32921;53.256;8.198;2022-08-21T03:26:33;13.00;99.90
47162;DHT22;32921;53.256;8.198;2022-08-21T03:28:59;12.90;99.90
47162;DHT22;32921;53.256;8.198;2022-08-21T03:31:25;12.90;99.90
47162;DHT22;32921;53.256;8.198;2022-08-21T03:33:56;12.80;99.90
47162;DHT22;32921;53.256;8.198;2022-08-21T03:36:22;12.70;99.90
47162;DHT22;32921;53.256;8.198;2022-08-21T03:38:48;12.60;99.90
47162;DHT22;32921;53.256;8.198;2022-08-21T03:41:14;12.50;99.90
47162;DHT22;32921;53.256;8.198;2022-08-21T03:43:39;12.50;99.90
47162;DHT22;32921;53.256;8.198;2022-08-21T03:46:06;12.30;99.90
47162;DHT22;32921;53.256;8.198;2022-08-21T03:48:33;12.20;99.90
47162;DHT22;32921;53.256;8.198;2022-08-21T03:50:59;12.10;99.90
47162;DHT22;32921;53.256;8.198;2022-08-21T03:53:30;12.00;99.90
47162;DHT22;32921;53.256;8.198;2022-08-21T03:55:56;12.20;99.90
47162;DHT22;32921;53.256;8.198;2022-08-21T03:58:24;12.40;99.90
47162;DHT22;32921;53.256;8.198;2022-08-21T04:00:52;12.30;99.90
47162;DHT22;32921;53.256;8.198;2022-08-21T04:03:19;12.30;99.90
47162;DHT22;32921;53.256;8.198;2022-08-21T04:05:45;12.30;99.90
47162;DHT22;32921;53.256;8.198;2022-08-21T04:08:11;12.30;99.90
47162;DHT22;32921;53.256;8.198;2022-08-21T04:10:38;12.20;99.90
47162;DHT22;32921;53.256;8.198;2022-08-21T04:13:06;12.20;99.90
47162;DHT22;32921;53.256;8.198;2022-08-21T04:15:32;12.20;99.90
47162;DHT22;32921;53.256;8.198;2022-08-21T04:17:57;12.20;99.90
47162;DHT22;32921;53.256;8.198;2022-08-21T04:20:24;12.20;99.90
47162;DHT22;32921;53.256;8.198;2022-08-21T04:22:50;12.30;99.90
47162;DHT22;32921;53.256;8.198;2022-08-21T04:25:19;12.30;99.90
47162;DHT22;32921;53.256;8.198;2022-08-21T04:27:45;12.30;99.90
47162;DHT22;32921;53.256;8.198;2022-08-21T04:30:12;12.20;99.90
47162;DHT22;32921;53.256;8.198;2022-08-21T04:32:38;12.20;99.90
47162;DHT22;32921;53.256;8.198;2022-08-21T04:35:07;12.10;99.90
47162;DHT22;32921;53.256;8.198;2022-08-21T04:37:34;12.10;99.90
47162;DHT22;32921;53.256;8.198;2022-08-21T04:39:59;12.20;99.90
47162;DHT22;32921;53.256;8.198;2022-08-21T04:42:26;12.10;99.90
47162;DHT22;32921;53.256;8.198;2022-08-21T04:44:53;12.20;99.90
47162;DHT22;32921;53.256;8.198;2022-08-21T04:47:19;12.20;99.90
47162;DHT22;32921;53.256;8.198;2022-08-21T04:49:45;12.30;99.90
47162;DHT22;32921;53.256;8.198;2022-08-21T04:52:11;12.30;99.90
47162;DHT22;32921;53.256;8.198;2022-08-21T04:54:39;12.40;99.90
47162;DHT22;32921;53.256;8.198;2022-08-21T04:57:06;12.40;99.90
47162;DHT22;32921;53.256;8.198;2022-08-21T04:59:40;12.50;99.90
47162;DHT22;32921;53.256;8.198;2022-08-21T05:02:08;12.50;99.90
47162;DHT22;32921;53.256;8.198;2022-08-21T05:04:37;12.60;99.90
47162;DHT22;32921;53.256;8.198;2022-08-21T05:07:07;12.60;99.90
47162;DHT22;32921;53.256;8.198;2022-08-21T05:09:36;12.60;99.90
47162;DHT22;32921;53.256;8.198;2022-08-21T05:12:03;12.60;99.90
47162;DHT22;32921;53.256;8.198;2022-08-21T05:14:29;12.70;99.90
47162;DHT22;32921;53.256;8.198;2022-08-21T05:16:55;12.70;99.90
47162;DHT22;32921;53.256;8.198;2022-08-21T05:19:21;12.80;99.90
47162;DHT22;32921;53.256;8.198;2022-08-21T05:21:46;12.90;99.90
47162;DHT22;32921;53.256;8.198;2022-08-21T05:24:15;13.00;99.90
47162;DHT22;32921;53.256;8.198;2022-08-21T05:26:41;13.00;99.90
47162;DHT22;32921;53.256;8.198;2022-08-21T05:29:07;13.10;99.90
47162;DHT22;32921;53.256;8.198;2022-08-21T05:31:33;13.20;99.90
47162;DHT22;32921;53.256;8.198;2022-08-21T05:33:59;13.20;99.90
47162;DHT22;32921;53.256;8.198;2022-08-21T05:36:25;13.20;99.90
47162;DHT22;32921;53.256;8.198;2022-08-21T05:38:50;13.30;99.90
47162;DHT22;32921;53.256;8.198;2022-08-21T05:41:16;13.30;99.90
47162;DHT22;32921;53.256;8.198;2022-08-21T05:43:42;13.30;99.90
47162;DHT22;32921;53.256;8.198;2022-08-21T05:46:08;13.50;99.90
47162;DHT22;32921;53.256;8.198;2022-08-21T05:48:34;13.60;99.90
47162;DHT22;32921;53.256;8.198;2022-08-21T05:51:09;13.70;99.90
47162;DHT22;32921;53.256;8.198;2022-08-21T05:53:35;13.80;99.90
47162;DHT22;32921;53.256;8.198;2022-08-21T05:56:01;14.00;99.90
47162;DHT22;32921;53.256;8.198;2022-08-21T05:58:29;14.10;99.90
47162;DHT22;32921;53.256;8.198;2022-08-21T06:00:55;14.30;99.90
47162;DHT22;32921;53.256;8.198;2022-08-21T06:03:24;14.50;99.90
47162;DHT22;32921;53.256;8.198;2022-08-21T06:05:50;14.60;99.90
47162;DHT22;32921;53.256;8.198;2022-08-21T06:08:17;14.80;99.90
47162;DHT22;32921;53.256;8.198;2022-08-21T06:10:43;14.90;99.90
47162;DHT22;32921;53.256;8.198;2022-08-21T06:13:09;15.10;99.90
47162;DHT22;32921;53.256;8.198;2022-08-21T06:15:35;15.20;99.90
47162;DHT22;32921;53.256;8.198;2022-08-21T06:18:01;15.30;99.90
47162;DHT22;32921;53.256;8.198;2022-08-21T06:20:27;15.50;99.90
47162;DHT22;32921;53.256;8.198;2022-08-21T06:22:53;15.70;99.90
47162;DHT22;32921;53.256;8.198;2022-08-21T06:25:19;15.70;99.90
47162;DHT22;32921;53.256;8.198;2022-08-21T06:27:44;15.90;99.90
47162;DHT22;32921;53.256;8.198;2022-08-21T06:30:11;16.00;99.90
47162;DHT22;32921;53.256;8.198;2022-08-21T06:32:36;16.30;99.90
47162;DHT22;32921;53.256;8.198;2022-08-21T06:35:03;16.50;99.90
47162;DHT22;32921;53.256;8.198;2022-08-21T06:37:29;16.70;99.90
47162;DHT22;32921;53.256;8.198;2022-08-21T06:39:55;16.90;99.90
47162;DHT22;32921;53.256;8.198;2022-08-21T06:42:20;17.10;99.90
47162;DHT22;32921;53.256;8.198;2022-08-21T06:44:47;17.50;99.90
47162;DHT22;32921;53.256;8.198;2022-08-21T06:47:13;17.80;99.90
47162;DHT22;32921;53.256;8.198;2022-08-21T06:49:39;18.10;99.90
47162;DHT22;32921;53.256;8.198;2022-08-21T06:52:09;18.50;99.90
47162;DHT22;32921;53.256;8.198;2022-08-21T06:54:35;18.90;99.90
47162;DHT22;32921;53.256;8.198;2022-08-21T06:57:01;19.40;99.90
47162;DHT22;32921;53.256;8.198;2022-08-21T06:59:26;20.10;99.90
47162;DHT22;32921;53.256;8.198;2022-08-21T07:01:52;20.50;99.90
47162;DHT22;32921;53.256;8.198;2022-08-21T07:04:17;21.20;99.90
47162;DHT22;32921;53.256;8.198;2022-08-21T07:06:43;21.40;99.90
47162;DHT22;32921;53.256;8.198;2022-08-21T07:09:09;21.60;99.90
47162;DHT22;32921;53.256;8.198;2022-08-21T07:11:36;21.80;99.90
47162;DHT22;32921;53.256;8.198;2022-08-21T07:14:03;22.00;99.90
47162;DHT22;32921;53.256;8.198;2022-08-21T07:16:29;22.40;99.90
47162;DHT22;32921;53.256;8.198;2022-08-21T07:18:54;22.80;99.90
47162;DHT22;32921;53.256;8.198;2022-08-21T07:21:20;23.00;99.90
47162;DHT22;32921;53.256;8.198;2022-08-21T07:23:49;23.10;99.90
47162;DHT22;32921;53.256;8.198;2022-08-21T07:26:17;23.30;99.90
47162;DHT22;32921;53.256;8.198;2022-08-21T07:28:43;23.60;99.90
47162;DHT22;32921;53.256;8.198;2022-08-21T07:31:09;23.90;98.80
47162;DHT22;32921;53.256;8.198;2022-08-21T07:33:36;24.20;97.10
47162;DHT22;32921;53.256;8.198;2022-08-21T07:36:02;24.50;97.50
47162;DHT22;32921;53.256;8.198;2022-08-21T07:38:27;25.00;95.70
47162;DHT22;32921;53.256;8.198;2022-08-21T07:40:55;25.00;94.10
47162;DHT22;32921;53.256;8.198;2022-08-21T07:43:22;25.30;93.90
47162;DHT22;32921;53.256;8.198;2022-08-21T07:45:48;25.60;92.70
47162;DHT22;32921;53.256;8.198;2022-08-21T07:48:15;25.70;92.20
47162;DHT22;32921;53.256;8.198;2022-08-21T07:50:40;25.90;91.80
47162;DHT22;32921;53.256;8.198;2022-08-21T07:53:06;26.00;91.10
47162;DHT22;32921;53.256;8.198;2022-08-21T07:55:32;26.10;91.30
47162;DHT22;32921;53.256;8.198;2022-08-21T07:57:58;26.50;91.30
47162;DHT22;32921;53.256;8.198;2022-08-21T08:00:26;26.90;90.10
47162;DHT22;32921;53.256;8.198;2022-08-21T08:02:53;26.70;90.70
47162;DHT22;32921;53.256;8.198;2022-08-21T08:05:22;26.10;90.70
47162;DHT22;32921;53.256;8.198;2022-08-21T08:07:48;25.80;91.00
47162;DHT22;32921;53.256;8.198;2022-08-21T08:10:14;25.40;91.30
47162;DHT22;32921;53.256;8.198;2022-08-21T08:12:41;25.50;91.40
47162;DHT22;32921;53.256;8.198;2022-08-21T08:15:10;25.60;92.10
47162;DHT22;32921;53.256;8.198;2022-08-21T08:17:36;25.20;92.00
47162;DHT22;32921;53.256;8.198;2022-08-21T08:20:03;25.70;91.90
47162;DHT22;32921;53.256;8.198;2022-08-21T08:22:29;26.00;91.80
47162;DHT22;32921;53.256;8.198;2022-08-21T08:24:55;26.40;91.00
47162;DHT22;32921;53.256;8.198;2022-08-21T08:27:21;26.40;90.20
47162;DHT22;32921;53.256;8.198;2022-08-21T08:29:47;26.30;91.50
47162;DHT22;32921;53.256;8.198;2022-08-21T08:32:13;25.90;90.40
47162;DHT22;32921;53.256;8.198;2022-08-21T08:34:39;26.00;90.90
47162;DHT22;32921;53.256;8.198;2022-08-21T08:37:07;25.40;91.40
47162;DHT22;32921;53.256;8.198;2022-08-21T08:39:32;25.20;91.50
47162;DHT22;32921;53.256;8.198;2022-08-21T08:44:34;25.60;91.60
47162;DHT22;32921;53.256;8.198;2022-08-21T08:47:01;25.70;90.90
47162;DHT22;32921;53.256;8.198;2022-08-21T08:49:31;25.60;90.30
47162;DHT22;32921;53.256;8.198;2022-08-21T08:52:07;26.00;90.00
47162;DHT22;32921;53.256;8.198;2022-08-21T08:54:45;25.30;89.40
47162;DHT22;32921;53.256;8.198;2022-08-21T08:57:17;25.30;91.00
47162;DHT22;32921;53.256;8.198;2022-08-21T08:59:48;26.10;90.20
47162;DHT22;32921;53.256;8.198;2022-08-21T09:02:16;26.00;89.10
47162;DHT22;32921;53.256;8.198;2022-08-21T09:04:42;26.60;90.10
47162;DHT22;32921;53.256;8.198;2022-08-21T09:07:31;26.90;84.90
47162;DHT22;32921;53.256;8.198;2022-08-21T09:15:19;26.40;85.40
47162;DHT22;32921;53.256;8.198;2022-08-21T09:17:59;26.50;85.70
47162;DHT22;32921;53.256;8.198;2022-08-21T09:23:26;26.40;87.50
47162;DHT22;32921;53.256;8.198;2022-08-21T09:26:07;26.60;85.60
47162;DHT22;32921;53.256;8.198;2022-08-21T09:28:37;26.20;85.60
47162;DHT22;32921;53.256;8.198;2022-08-21T09:31:07;25.90;84.80
47162;DHT22;32921;53.256;8.198;2022-08-21T09:33:34;26.20;83.20
47162;DHT22;32921;53.256;8.198;2022-08-21T09:36:00;26.70;81.20
47162;DHT22;32921;53.256;8.198;2022-08-21T09:38:31;26.30;83.40
47162;DHT22;32921;53.256;8.198;2022-08-21T09:41:07;25.90;84.30
47162;DHT22;32921;53.256;8.198;2022-08-21T09:43:34;26.40;81.60
47162;DHT22;32921;53.256;8.198;2022-08-21T09:46:20;26.50;78.00
47162;DHT22;32921;53.256;8.198;2022-08-21T09:48:49;26.80;78.80
47162;DHT22;32921;53.256;8.198;2022-08-21T09:51:21;26.90;78.00
47162;DHT22;32921;53.256;8.198;2022-08-21T09:53:55;26.00;82.10
47162;DHT22;32921;53.256;8.198;2022-08-21T09:56:31;26.00;82.80
47162;DHT22;32921;53.256;8.198;2022-08-21T09:59:30;25.80;80.00
47162;DHT22;32921;53.256;8.198;2022-08-21T10:01:59;24.90;82.20
47162;DHT22;32921;53.256;8.198;2022-08-21T10:04:32;24.50;84.20
47162;DHT22;32921;53.256;8.198;2022-08-21T10:07:11;25.40;85.70
47162;DHT22;32921;53.256;8.198;2022-08-21T10:09:38;25.20;82.70
47162;DHT22;32921;53.256;8.198;2022-08-21T10:14:56;26.20;78.70
47162;DHT22;32921;53.256;8.198;2022-08-21T10:20:13;27.80;76.10
47162;DHT22;32921;53.256;8.198;2022-08-21T10:23:02;28.40;73.90
47162;DHT22;32921;53.256;8.198;2022-08-21T10:25:49;28.50;70.00
47162;DHT22;32921;53.256;8.198;2022-08-21T10:28:34;28.40;69.90
47162;DHT22;32921;53.256;8.198;2022-08-21T10:31:18;28.90;70.00
47162;DHT22;32921;53.256;8.198;2022-08-21T10:39:34;29.20;66.20
47162;DHT22;32921;53.256;8.198;2022-08-21T10:47:36;29.90;61.30
47162;DHT22;32921;53.256;8.198;2022-08-21T10:50:07;30.10;60.40
47162;DHT22;32921;53.256;8.198;2022-08-21T10:52:59;30.40;58.70
47162;DHT22;32921;53.256;8.198;2022-08-21T10:55:33;31.30;58.60
47162;DHT22;32921;53.256;8.198;2022-08-21T10:58:12;31.30;58.10
47162;DHT22;32921;53.256;8.198;2022-08-21T11:00:47;30.30;59.30
47162;DHT22;32921;53.256;8.198;2022-08-21T11:03:31;29.50;61.30
47162;DHT22;32921;53.256;8.198;2022-08-21T11:06:24;28.80;62.90
47162;DHT22;32921;53.256;8.198;2022-08-21T11:09:10;28.00;64.50
47162;DHT22;32921;53.256;8.198;2022-08-21T11:14:31;28.10;65.20
47162;DHT22;32921;53.256;8.198;2022-08-21T11:17:10;28.00;63.00
47162;DHT22;32921;53.256;8.198;2022-08-21T11:19:45;28.60;61.80
47162;DHT22;32921;53.256;8.198;2022-08-21T11:22:26;28.70;61.40
47162;DHT22;32921;53.256;8.198;2022-08-21T11:25:10;29.60;61.60
47162;DHT22;32921;53.256;8.198;2022-08-21T11:27:56;30.90;58.50
47162;DHT22;32921;53.256;8.198;2022-08-21T11:30:26;31.30;57.30
47162;DHT22;32921;53.256;8.198;2022-08-21T11:33:04;31.60;56.90
47162;DHT22;32921;53.256;8.198;2022-08-21T11:35:51;31.80;53.20
47162;DHT22;32921;53.256;8.198;2022-08-21T11:38:34;31.80;52.60
47162;DHT22;32921;53.256;8.198;2022-08-21T11:41:16;32.10;53.30
47162;DHT22;32921;53.256;8.198;2022-08-21T11:43:47;32.80;54.10
47162;DHT22;32921;53.256;8.198;2022-08-21T11:46:35;33.50;51.70
47162;DHT22;32921;53.256;8.198;2022-08-21T11:49:49;33.50;51.50
47162;DHT22;32921;53.256;8.198;2022-08-21T11:52:28;33.10;49.10
47162;DHT22;32921;53.256;8.198;2022-08-21T11:55:12;33.10;49.80
47162;DHT22;32921;53.256;8.198;2022-08-21T11:57:51;33.20;48.90
47162;DHT22;32921;53.256;8.198;2022-08-21T12:00:24;32.30;50.80
47162;DHT22;32921;53.256;8.198;2022-08-21T12:02:54;32.20;50.50
47162;DHT22;32921;53.256;8.198;2022-08-21T12:05:26;32.00;50.20
47162;DHT22;32921;53.256;8.198;2022-08-21T12:08:06;31.40;52.40
47162;DHT22;32921;53.256;8.198;2022-08-21T12:10:37;31.80;51.40
47162;DHT22;32921;53.256;8.198;2022-08-21T12:13:07;32.80;51.70
47162;DHT22;32921;53.256;8.198;2022-08-21T12:15:33;33.20;50.00
47162;DHT22;32921;53.256;8.198;2022-08-21T12:18:05;32.30;48.00
47162;DHT22;32921;53.256;8.198;2022-08-21T12:20:44;32.90;48.90
47162;DHT22;32921;53.256;8.198;2022-08-21T12:23:45;33.10;47.60
47162;DHT22;32921;53.256;8.198;2022-08-21T12:26:26;33.80;46.90
47162;DHT22;32921;53.256;8.198;2022-08-21T12:29:16;33.50;47.70
47162;DHT22;32921;53.256;8.198;2022-08-21T12:31:51;32.40;48.40
47162;DHT22;32921;53.256;8.198;2022-08-21T12:34:18;32.60;49.00
47162;DHT22;32921;53.256;8.198;2022-08-21T12:36:49;32.50;48.10
47162;DHT22;32921;53.256;8.198;2022-08-21T12:39:23;31.50;47.30
47162;DHT22;32921;53.256;8.198;2022-08-21T12:42:39;32.40;49.80
47162;DHT22;32921;53.256;8.198;2022-08-21T12:45:03;33.30;47.50
47162;DHT22;32921;53.256;8.198;2022-08-21T12:47:36;33.00;47.50
47162;DHT22;32921;53.256;8.198;2022-08-21T12:50:17;33.30;46.40
47162;DHT22;32921;53.256;8.198;2022-08-21T12:52:59;33.60;45.80
47162;DHT22;32921;53.256;8.198;2022-08-21T12:55:31;34.10;45.20
47162;DHT22;32921;53.256;8.198;2022-08-21T12:57:57;34.50;43.50
47162;DHT22;32921;53.256;8.198;2022-08-21T13:00:24;34.20;45.10
47162;DHT22;32921;53.256;8.198;2022-08-21T13:02:52;34.10;45.40
47162;DHT22;32921;53.256;8.198;2022-08-21T13:05:35;34.90;42.20
47162;DHT22;32921;53.256;8.198;2022-08-21T13:08:06;34.70;41.50
47162;DHT22;32921;53.256;8.198;2022-08-21T13:10:34;34.30;41.90
47162;DHT22;32921;53.256;8.198;2022-08-21T13:13:13;33.70;43.60
47162;DHT22;32921;53.256;8.198;2022-08-21T13:15:42;33.40;42.10
47162;DHT22;32921;53.256;8.198;2022-08-21T13:18:07;32.30;44.10
47162;DHT22;32921;53.256;8.198;2022-08-21T13:20:38;32.60;43.60
47162;DHT22;32921;53.256;8.198;2022-08-21T13:23:26;33.30;42.70
47162;DHT22;32921;53.256;8.198;2022-08-21T13:25:53;34.20;40.80
47162;DHT22;32921;53.256;8.198;2022-08-21T13:28:19;34.40;41.20
47162;DHT22;32921;53.256;8.198;2022-08-21T13:30:48;34.60;42.10
47162;DHT22;32921;53.256;8.198;2022-08-21T13:33:16;34.80;39.20
47162;DHT22;32921;53.256;8.198;2022-08-21T13:36:42;35.40;38.10
47162;DHT22;32921;53.256;8.198;2022-08-21T13:38:50;35.50;39.10
47162;DHT22;32921;53.256;8.198;2022-08-21T13:41:28;34.80;38.60
47162;DHT22;32921;53.256;8.198;2022-08-21T13:44:03;34.90;38.60
47162;DHT22;32921;53.256;8.198;2022-08-21T13:46:32;35.60;38.20
47162;DHT22;32921;53.256;8.198;2022-08-21T13:49:00;34.40;36.80
47162;DHT22;32921;53.256;8.198;2022-08-21T13:51:29;33.50;38.40
47162;DHT22;32921;53.256;8.198;2022-08-21T13:53:55;33.90;39.50
47162;DHT22;32921;53.256;8.198;2022-08-21T13:56:26;34.10;39.90
47162;DHT22;32921;53.256;8.198;2022-08-21T13:58:52;34.80;39.10
47162;DHT22;32921;53.256;8.198;2022-08-21T14:01:22;35.00;38.30
47162;DHT22;32921;53.256;8.198;2022-08-21T14:03:49;34.70;39.00
47162;DHT22;32921;53.256;8.198;2022-08-21T14:06:22;33.70;38.30
47162;DHT22;32921;53.256;8.198;2022-08-21T14:11:18;32.60;40.40
47162;DHT22;32921;53.256;8.198;2022-08-21T14:13:48;33.30;39.80
47162;DHT22;32921;53.256;8.198;2022-08-21T14:16:24;33.90;38.40
47162;DHT22;32921;53.256;8.198;2022-08-21T14:19:15;32.50;40.30
47162;DHT22;32921;53.256;8.198;2022-08-21T14:21:43;32.10;41.70
47162;DHT22;32921;53.256;8.198;2022-08-21T14:24:26;31.30;44.40
47162;DHT22;32921;53.256;8.198;2022-08-21T14:26:56;30.80;43.70
47162;DHT22;32921;53.256;8.198;2022-08-21T14:29:25;30.60;45.50
47162;DHT22;32921;53.256;8.198;2022-08-21T14:31:55;31.80;43.50
47162;DHT22;32921;53.256;8.198;2022-08-21T14:34:24;32.20;42.80
47162;DHT22;32921;53.256;8.198;2022-08-21T14:36:50;31.50;43.40
47162;DHT22;32921;53.256;8.198;2022-08-21T14:39:16;31.20;43.70
47162;DHT22;32921;53.256;8.198;2022-08-21T14:41:42;30.60;44.10
47162;DHT22;32921;53.256;8.198;2022-08-21T14:44:09;30.20;45.20
47162;DHT22;32921;53.256;8.198;2022-08-21T14:46:35;30.30;44.50
47162;DHT22;32921;53.256;8.198;2022-08-21T14:49:02;30.30;44.30
47162;DHT22;32921;53.256;8.198;2022-08-21T14:51:28;30.00;44.40
47162;DHT22;32921;53.256;8.198;2022-08-21T14:53:54;29.50;46.90
47162;DHT22;32921;53.256;8.198;2022-08-21T14:56:20;29.20;46.90
47162;DHT22;32921;53.256;8.198;2022-08-21T14:58:48;28.90;47.70
47162;DHT22;32921;53.256;8.198;2022-08-21T15:01:15;29.10;47.00
47162;DHT22;32921;53.256;8.198;2022-08-21T15:03:42;28.90;47.10
47162;DHT22;32921;53.256;8.198;2022-08-21T15:06:09;28.60;48.20
47162;DHT22;32921;53.256;8.198;2022-08-21T15:08:35;28.30;48.50
47162;DHT22;32921;53.256;8.198;2022-08-21T15:11:01;28.30;48.20
47162;DHT22;32921;53.256;8.198;2022-08-21T15:13:28;28.80;48.30
47162;DHT22;32921;53.256;8.198;2022-08-21T15:15:54;28.80;47.70
47162;DHT22;32921;53.256;8.198;2022-08-21T15:18:22;29.30;47.90
47162;DHT22;32921;53.256;8.198;2022-08-21T15:20:48;31.20;45.40
47162;DHT22;32921;53.256;8.198;2022-08-21T15:23:14;31.90;45.00
47162;DHT22;32921;53.256;8.198;2022-08-21T15:25:42;32.70;42.20
47162;DHT22;32921;53.256;8.198;2022-08-21T15:28:09;31.40;44.00
47162;DHT22;32921;53.256;8.198;2022-08-21T15:30:36;29.60;46.60
47162;DHT22;32921;53.256;8.198;2022-08-21T15:33:02;28.60;49.40
47162;DHT22;32921;53.256;8.198;2022-08-21T15:35:28;28.10;50.90
47162;DHT22;32921;53.256;8.198;2022-08-21T15:37:54;27.70;51.50
47162;DHT22;32921;53.256;8.198;2022-08-21T15:40:19;28.90;50.30
47162;DHT22;32921;53.256;8.198;2022-08-21T15:42:45;30.50;47.80
47162;DHT22;32921;53.256;8.198;2022-08-21T15:45:12;31.90;47.00
47162;DHT22;32921;53.256;8.198;2022-08-21T15:47:43;30.70;50.70
47162;DHT22;32921;53.256;8.198;2022-08-21T15:50:10;29.40;54.30
47162;DHT22;32921;53.256;8.198;2022-08-21T15:52:36;28.40;56.10
47162;DHT22;32921;53.256;8.198;2022-08-21T15:55:04;27.70;59.10
47162;DHT22;32921;53.256;8.198;2022-08-21T15:57:30;26.70;62.50
47162;DHT22;32921;53.256;8.198;2022-08-21T16:00:10;26.10;64.70
47162;DHT22;32921;53.256;8.198;2022-08-21T16:02:39;25.30;66.30
47162;DHT22;32921;53.256;8.198;2022-08-21T16:05:05;24.60;69.50
47162;DHT22;32921;53.256;8.198;2022-08-21T16:07:31;24.20;70.90
47162;DHT22;32921;53.256;8.198;2022-08-21T16:09:57;24.00;72.00
47162;DHT22;32921;53.256;8.198;2022-08-21T16:12:28;23.90;73.30
47162;DHT22;32921;53.256;8.198;2022-08-21T16:14:59;24.00;73.30
47162;DHT22;32921;53.256;8.198;2022-08-21T16:17:28;24.10;73.30